createdAt,value
2022-10-23T03:33:20.247Z,0
2022-10-23T03:38:22.074Z,0
2022-10-23T03:43:23.676Z,0
2022-10-23T03:48:25.365Z,0
2022-10-23T03:53:27.114Z,0
2022-10-23T03:58:28.857Z,0
2022-10-23T04:03:30.540Z,0
2022-10-23T04:08:32.271Z,0
2022-10-23T04:13:34.022Z,0
2022-10-23T04:18:35.808Z,0
2022-10-23T04:23:37.548Z,0
2022-10-23T04:28:39.287Z,0
2022-10-23T04:33:41.103Z,0
2022-10-23T04:38:43.238Z,0
2022-10-23T04:43:45.003Z,0
2022-10-23T04:48:46.776Z,0
2022-10-23T04:53:48.785Z,0
2022-10-23T04:58:50.717Z,0
2022-10-23T05:03:52.500Z,0
2022-10-23T05:08:54.284Z,0.67
2022-10-23T05:13:56.072Z,0.67
2022-10-23T05:18:58.333Z,0
2022-10-23T05:29:02.264Z,0
2022-10-23T05:34:03.958Z,0
2022-10-23T05:39:05.640Z,0
2022-10-23T05:44:07.322Z,0
2022-10-23T05:49:09.473Z,0
2022-10-23T05:54:11.231Z,0
2022-10-23T05:59:12.924Z,0
2022-10-23T06:04:14.602Z,0
2022-10-23T06:09:16.318Z,0
2022-10-23T06:14:18.433Z,0.3
2022-10-23T06:19:20.416Z,0.3
2022-10-23T06:24:22.288Z,1.51
2022-10-23T06:29:23.981Z,1.51
2022-10-23T06:34:25.742Z,0
2022-10-23T06:39:33.055Z,0
2022-10-23T06:44:35.010Z,0
2022-10-23T06:49:36.773Z,0
2022-10-23T06:54:38.560Z,0
2022-10-23T06:59:40.345Z,0
2022-10-23T07:04:42.091Z,0
2022-10-23T07:09:43.915Z,0
2022-10-23T07:14:45.717Z,1.49
2022-10-23T07:19:47.574Z,1.49
2022-10-23T07:24:49.321Z,1.08
2022-10-23T07:29:51.290Z,1.28
2022-10-23T07:34:53.015Z,1.28
2022-10-23T07:39:54.775Z,0.92
2022-10-23T07:44:56.394Z,0.92
2022-10-23T07:49:58.496Z,1.58
2022-10-23T07:55:00.640Z,1.58
2022-10-23T08:00:02.313Z,1.05
2022-10-23T08:05:04.648Z,1.05
2022-10-23T08:10:06.900Z,1.55
2022-10-23T08:15:09.269Z,1.55
2022-10-23T08:20:11.218Z,1.84
2022-10-23T08:25:13.651Z,1.84
2022-10-23T08:30:15.691Z,2.12
2022-10-23T08:35:17.717Z,2.12
2022-10-23T08:40:22.084Z,2.05
2022-10-23T08:45:28.765Z,1.37
2022-10-23T08:50:34.888Z,1.37
2022-10-23T08:55:38.482Z,0.96
2022-10-23T09:00:41.647Z,0.96
2022-10-23T09:05:49.478Z,0.55
2022-10-23T09:16:02.056Z,0
2022-10-23T09:21:08.695Z,0
2022-10-23T09:26:13.172Z,1.28
2022-10-23T09:31:15.146Z,1.28
2022-10-23T09:36:19.295Z,3.33
2022-10-23T09:41:22.665Z,3.33
2022-10-23T09:46:24.380Z,0.88
2022-10-23T09:51:28.424Z,0.88
2022-10-23T09:56:31.718Z,1.73
2022-10-23T10:01:35.321Z,1.73
2022-10-23T10:06:37.440Z,1.5
2022-10-23T10:11:41.138Z,3.73
2022-10-23T10:21:52.839Z,2.14
2022-10-23T10:26:58.417Z,2.14
2022-10-23T10:32:05.836Z,1.19
2022-10-23T10:47:27.868Z,1.83
2022-10-23T10:52:33.465Z,0.76
2022-10-23T10:57:39.435Z,0.76
2022-10-23T11:02:44.111Z,3.65
2022-10-23T11:07:52.568Z,3.65
2022-10-23T11:12:54.492Z,1.97
2022-10-23T11:17:58.406Z,0.8
2022-10-23T11:38:35.590Z,4.69
2022-10-23T11:48:43.878Z,1.66
2022-10-23T11:53:45.551Z,1.66
2022-10-23T11:58:48.960Z,1.89
2022-10-23T12:03:52.540Z,1.89
2022-10-23T12:08:56.479Z,2.72
2022-10-23T12:13:58.315Z,2.72
2022-10-23T12:29:28.449Z,2.19
2022-10-23T12:34:34.760Z,0
2022-10-23T12:39:37.382Z,0
2022-10-23T12:44:39.544Z,3.16
2022-10-23T12:54:47.174Z,0
2022-10-23T12:59:50.453Z,0
2022-10-23T13:04:53.541Z,1.85
2022-10-23T13:09:55.547Z,1.85
2022-10-23T13:14:59.113Z,3.46
2022-10-23T13:35:23.515Z,0.98
2022-10-23T13:40:26.463Z,1.36
2022-10-23T13:45:29.142Z,1.36
2022-10-23T13:50:31.371Z,2.61
2022-10-23T13:55:33.932Z,2.61
2022-10-23T14:00:36.336Z,2.98
2022-10-23T14:05:38.509Z,2.98
2022-10-23T14:10:40.492Z,5.76
2022-10-23T14:15:42.203Z,5.76
2022-10-23T14:20:44.333Z,2.13
2022-10-23T14:25:46.631Z,2.13
2022-10-23T14:30:48.632Z,5.11
2022-10-23T14:35:50.969Z,5.11
2022-10-23T14:40:53.478Z,1.51
2022-10-23T14:45:55.449Z,2.08
2022-10-23T14:50:57.690Z,2.08
2022-10-23T14:56:01.450Z,2.6
2022-10-23T15:01:04.673Z,2.6
2022-10-23T15:06:07.223Z,2.99
2022-10-23T15:11:13.716Z,2.99
2022-10-23T15:16:15.965Z,1.19
2022-10-23T15:21:18.625Z,1.19
2022-10-23T15:26:21.959Z,1.44
2022-10-23T15:31:24.785Z,1.44
2022-10-23T15:36:27.969Z,0.62
2022-10-23T15:41:31.596Z,0.62
2022-10-23T15:46:34.598Z,2.9
2022-10-23T15:51:37.190Z,2.9
2022-10-23T15:56:39.575Z,2.69
2022-10-23T16:01:42.499Z,1.71
2022-10-23T16:06:45.803Z,1.71
2022-10-23T16:11:47.963Z,2.86
2022-10-23T16:16:50.212Z,2.86
2022-10-23T16:21:52.320Z,2.26
2022-10-23T16:26:54.395Z,2.26
2022-10-23T16:31:57.732Z,1.69
2022-10-23T16:37:01.430Z,1.69
2022-10-23T16:42:04.363Z,2.42
2022-10-23T16:47:06.938Z,2.42
2022-10-23T16:52:09.896Z,0.97
2022-10-23T16:57:12.603Z,0.97
2022-10-23T17:02:15.744Z,1.77
2022-10-23T17:07:19.969Z,1.77
2022-10-23T17:12:22.500Z,1.59
2022-10-23T17:17:25.326Z,1.76
2022-10-23T17:22:27.820Z,1.76
2022-10-23T17:27:33.654Z,0.59
2022-10-23T17:32:37.597Z,0.59
2022-10-23T17:37:41.054Z,2.9
2022-10-23T17:42:46.455Z,2.9
2022-10-23T17:47:50.833Z,1.32
2022-10-23T17:52:54.628Z,1.32
2022-10-23T17:57:58.463Z,2.12
2022-10-23T18:03:02.683Z,2.12
2022-10-23T18:08:05.477Z,0
2022-10-23T18:13:08.678Z,0
2022-10-23T18:18:11.514Z,2.27
2022-10-23T18:23:14.007Z,2.27
2022-10-23T18:28:16.782Z,2.62
2022-10-23T18:33:21.184Z,0
2022-10-23T18:38:25.703Z,0
2022-10-23T18:48:36.707Z,0
2022-10-23T18:53:39.232Z,0.24
2022-10-23T18:58:44.380Z,0.24
2022-10-23T19:03:47.917Z,1.22
2022-10-23T19:08:50.815Z,1.22
2022-10-23T19:13:54.064Z,0
2022-10-23T19:18:58.872Z,0
2022-10-23T19:24:02.577Z,0
2022-10-23T19:29:07.372Z,0
2022-10-23T19:34:13.279Z,0.68
2022-10-23T19:39:16.339Z,0
2022-10-23T19:44:24.134Z,0
2022-10-23T19:49:26.858Z,0
2022-10-23T19:54:29.569Z,0
2022-10-23T19:59:32.242Z,1.21
2022-10-23T20:04:37.521Z,1.21
2022-10-23T20:09:40.118Z,0
2022-10-23T20:14:43.501Z,0
2022-10-23T20:19:46.711Z,0.47
2022-10-23T20:24:49.410Z,0.47
2022-10-23T20:29:52.339Z,0
2022-10-23T20:34:54.903Z,0
2022-10-23T20:39:58.930Z,0
2022-10-23T20:45:01.382Z,0
2022-10-23T20:50:04.128Z,0
2022-10-23T20:55:06.994Z,0
2022-10-23T21:00:09.841Z,0
2022-10-23T21:05:11.543Z,0
2022-10-23T21:10:14.419Z,0
2022-10-23T21:15:16.239Z,0
2022-10-23T21:20:17.977Z,0
2022-10-23T21:25:19.777Z,0
2022-10-23T21:30:21.610Z,0
2022-10-23T21:35:30.572Z,0
